This is the latest recevied weather packets stored in our database for station/object ED2YAA-3. If no packets are shown the sender has not sent any weather packets the latest 10 day(s).
| Time | Temp. | Humidity | Pressure | Rain* | Wind** | Luminosity | Snow |
|---|---|---|---|---|---|---|---|
| 1777405160 | 16.67° C | 79% | 990.6 hPa | 0 mm | - | - | - |
| 1777404915 | 16.67° C | 79% | 990.5 hPa | 0 mm | - | - | - |
| 1777401562 | 17.22° C | 78% | 990.1 hPa | 0 mm | - | - | - |
| 1777401315 | 17.22° C | 78% | 990.1 hPa | 0 mm | - | - | - |
| 1777397962 | 17.78° C | 73% | 990.3 hPa | 0 mm | - | - | - |
| 1777397716 | 18.33° C | 73% | 990.2 hPa | 0 mm | - | - | - |
| 1777394362 | 18.89° C | 72% | 990.4 hPa | 0 mm | - | - | - |
| 1777394116 | 18.89° C | 72% | 990.3 hPa | 0 mm | - | - | - |
| 1777390761 | 20.56° C | 68% | 990 hPa | 0 mm | - | - | - |
| 1777390516 | 20.56° C | 68% | 990 hPa | 0 mm | - | - | - |
| 1777387162 | 21.67° C | 66% | 990.1 hPa | 0 mm | - | - | - |
| 1777386915 | 21.67° C | 66% | 990.2 hPa | 0 mm | - | - | - |
| 1777383560 | 22.22° C | 63% | 990.5 hPa | 0 mm | - | - | - |
| 1777383315 | 22.22° C | 63% | 990.7 hPa | 0 mm | - | - | - |
| 1777379960 | 22.22° C | 61% | 991.2 hPa | 0 mm | - | - | - |
| 1777379714 | 22.22° C | 61% | 991.1 hPa | 0 mm | - | - | - |
| 1777376361 | 21.67° C | 62% | 991.9 hPa | 0 mm | - | - | - |
| 1777376114 | 21.67° C | 62% | 992 hPa | 0 mm | - | - | - |
| 1777372761 | 24.44° C | 57% | 992.7 hPa | 0 mm | - | - | - |
| 1777372514 | 24.44° C | 56% | 992.8 hPa | 0 mm | - | - | - |
| 1777369161 | 28.89° C | 52% | 993.2 hPa | 0 mm | - | - | - |
| 1777368915 | 28.33° C | 55% | 993.2 hPa | 0 mm | - | - | - |
| 1777365560 | 19.44° C | 78% | 993.5 hPa | 0 mm | - | - | - |
| 1777365315 | 19.44° C | 79% | 993.5 hPa | 0 mm | - | - | - |
| 1777361960 | 17.78° C | 83% | 993.8 hPa | 0 mm | - | - | - |
* Rain latest hour (hover to see other rain measurements)
** Current wind speed in m/s (hover to see current wind gust speed)